createdAt,value
2017-07-25T00:00:15.206Z,16.45
2017-07-25T00:02:42.967Z,15.77
2017-07-25T00:05:10.754Z,16.98
2017-07-25T00:07:38.518Z,15.77
2017-07-25T00:10:06.333Z,16.98
2017-07-25T00:12:34.090Z,18.77
2017-07-25T00:15:01.865Z,14.90
2017-07-25T00:17:29.654Z,17.00
2017-07-25T00:19:58.181Z,15.90
2017-07-25T00:22:26.476Z,15.98
2017-07-25T00:24:54.240Z,20.12
2017-07-25T00:27:21.998Z,17.33
2017-07-25T00:29:49.788Z,18.70
2017-07-25T00:32:18.319Z,19.45
2017-07-25T00:34:46.134Z,18.90
2017-07-25T00:37:14.657Z,20.70
2017-07-25T00:39:42.418Z,20.70
2017-07-25T00:42:10.208Z,19.27
2017-07-25T00:44:37.967Z,21.92
2017-07-25T00:47:05.789Z,19.20
2017-07-25T00:49:33.555Z,19.67
2017-07-25T00:52:01.363Z,20.88
2017-07-25T00:54:29.151Z,18.70
2017-07-25T00:56:57.683Z,24.05
2017-07-25T00:59:25.517Z,23.98
2017-07-25T01:01:53.275Z,20.45
2017-07-25T01:04:21.043Z,21.85
2017-07-25T01:06:48.835Z,21.05
2017-07-25T01:09:16.596Z,22.50
2017-07-25T01:11:44.426Z,21.12
2017-07-25T01:14:12.186Z,21.55
2017-07-25T01:16:39.953Z,20.45
2017-07-25T01:19:07.759Z,20.65
2017-07-25T01:21:35.522Z,20.77
2017-07-25T01:24:04.127Z,20.75
2017-07-25T01:26:32.662Z,18.17
2017-07-25T01:29:00.425Z,18.85
2017-07-25T01:31:28.214Z,20.12
2017-07-25T01:33:55.978Z,18.95
2017-07-25T01:36:30.457Z,21.73
2017-07-25T01:38:58.219Z,22.02
2017-07-25T01:41:25.997Z,21.92
2017-07-25T01:43:53.801Z,23.00
2017-07-25T01:46:22.362Z,19.83
2017-07-25T01:48:50.217Z,17.95
2017-07-25T01:51:17.978Z,16.83
2017-07-25T01:53:45.756Z,13.62
2017-07-25T01:56:14.322Z,13.60
2017-07-25T01:58:42.099Z,14.70
2017-07-25T02:01:10.707Z,13.88
2017-07-25T02:03:38.467Z,14.27
2017-07-25T02:06:06.231Z,14.63
2017-07-25T02:08:34.024Z,15.40
2017-07-25T02:11:01.785Z,17.20
2017-07-25T02:13:29.610Z,15.85
2017-07-25T02:15:57.371Z,16.83
2017-07-25T02:18:25.138Z,17.33
2017-07-25T02:20:52.941Z,18.00
2017-07-25T02:23:20.697Z,14.48
2017-07-25T02:25:48.517Z,14.23
2017-07-25T02:28:16.282Z,14.43
2017-07-25T02:30:44.042Z,13.82
2017-07-25T02:33:11.837Z,13.02
2017-07-25T02:35:39.593Z,13.55
2017-07-25T02:38:07.422Z,14.18
2017-07-25T02:40:35.950Z,17.40
2017-07-25T02:43:05.327Z,16.70
2017-07-25T02:45:33.117Z,16.70
2017-07-25T02:48:00.891Z,14.30
2017-07-25T02:50:28.705Z,13.23
2017-07-25T02:52:56.466Z,12.10
2017-07-25T02:55:24.226Z,12.13
2017-07-25T02:57:52.028Z,11.40
2017-07-25T03:00:19.791Z,10.93
2017-07-25T03:02:47.606Z,10.45
2017-07-25T03:05:15.367Z,11.52
2017-07-25T03:07:43.181Z,12.05
2017-07-25T03:10:10.986Z,14.10
2017-07-25T03:12:38.746Z,14.68
2017-07-25T03:15:06.570Z,17.55
2017-07-25T03:17:34.327Z,17.95
2017-07-25T03:20:02.088Z,18.12
2017-07-25T03:22:29.877Z,18.85
2017-07-25T03:24:58.404Z,20.52
2017-07-25T03:27:26.221Z,22.55
2017-07-25T03:29:53.986Z,19.42
2017-07-25T03:32:22.519Z,22.08
2017-07-25T03:34:50.306Z,24.23
2017-07-25T03:37:18.074Z,23.80
2017-07-25T03:39:45.900Z,25.12
2017-07-25T03:42:13.659Z,22.67
2017-07-25T03:44:41.421Z,20.40
2017-07-25T03:47:09.217Z,22.40
2017-07-25T03:49:36.988Z,21.23
2017-07-25T03:52:05.574Z,21.80
2017-07-25T03:54:34.094Z,18.17
2017-07-25T03:57:01.854Z,18.60
2017-07-25T03:59:29.648Z,14.90
2017-07-25T04:01:57.414Z,14.57
2017-07-25T04:04:25.230Z,10.00
2017-07-25T04:06:52.983Z,6.90
2017-07-25T04:09:20.756Z,5.72
2017-07-25T04:11:48.554Z,5.97
2017-07-25T04:14:16.313Z,7.28
2017-07-25T04:16:44.122Z,5.90
2017-07-25T04:19:12.639Z,4.97
2017-07-25T04:21:40.389Z,6.37
2017-07-25T04:24:08.174Z,5.90
2017-07-25T04:26:35.929Z,5.10
2017-07-25T04:29:03.738Z,6.05
2017-07-25T04:31:32.274Z,5.97
2017-07-25T04:34:00.026Z,7.97
2017-07-25T04:36:27.811Z,6.10
2017-07-25T04:38:55.566Z,6.80
2017-07-25T04:41:23.373Z,6.60
2017-07-25T04:43:51.893Z,5.22
2017-07-25T04:46:19.646Z,5.28
2017-07-25T04:48:47.429Z,6.32
2017-07-25T04:51:15.187Z,5.18
2017-07-25T04:53:43.006Z,5.50
2017-07-25T04:56:10.770Z,6.45
2017-07-25T04:58:38.540Z,6.60
2017-07-25T05:01:06.319Z,5.37
2017-07-25T05:03:34.080Z,8.23
2017-07-25T05:06:01.899Z,7.82
2017-07-25T05:08:30.414Z,6.22
2017-07-25T05:10:58.165Z,5.70
2017-07-25T05:13:25.945Z,6.10
2017-07-25T05:15:53.695Z,6.40
2017-07-25T05:18:41.982Z,6.20
2017-07-25T05:21:09.738Z,6.00
2017-07-25T05:23:37.492Z,6.45
2017-07-25T05:26:05.285Z,5.28
2017-07-25T05:28:33.811Z,4.90
2017-07-25T05:31:01.638Z,4.40
2017-07-25T05:33:30.191Z,3.97
2017-07-25T05:35:57.946Z,4.10
2017-07-25T05:38:25.730Z,4.00
2017-07-25T05:40:54.251Z,4.35
2017-07-25T05:43:22.062Z,4.40
2017-07-25T05:45:49.822Z,4.90
2017-07-25T05:48:17.584Z,4.55
2017-07-25T05:50:45.365Z,4.55
2017-07-25T05:53:13.886Z,5.30
2017-07-25T05:55:41.704Z,5.62
2017-07-25T05:58:09.475Z,6.10
2017-07-25T06:00:38.030Z,6.03
2017-07-25T06:03:05.829Z,5.65
2017-07-25T06:05:33.577Z,5.45
2017-07-25T06:08:02.234Z,5.28
2017-07-25T06:10:30.010Z,5.70
2017-07-25T06:12:58.526Z,5.87
2017-07-25T06:15:26.315Z,5.30
2017-07-25T06:17:54.201Z,5.60
2017-07-25T06:20:22.013Z,5.15
2017-07-25T06:22:49.774Z,5.65
2017-07-25T06:25:17.532Z,4.72
2017-07-25T06:27:45.350Z,4.70
2017-07-25T06:30:13.098Z,4.53
2017-07-25T06:32:40.976Z,4.65
2017-07-25T06:35:08.781Z,4.70
2017-07-25T06:37:36.600Z,4.37
2017-07-25T06:40:04.366Z,3.65
2017-07-25T06:42:32.180Z,3.95
2017-07-25T06:44:59.935Z,3.67
2017-07-25T06:47:27.692Z,4.15
2017-07-25T06:49:55.513Z,4.60
2017-07-25T06:52:23.279Z,3.47
2017-07-25T06:54:51.033Z,4.30
2017-07-25T06:57:18.846Z,4.12
2017-07-25T06:59:46.660Z,3.70
2017-07-25T07:02:14.523Z,3.33
2017-07-25T07:04:42.386Z,3.33
2017-07-25T07:07:10.251Z,4.75
2017-07-25T07:09:38.015Z,2.97
2017-07-25T07:12:05.873Z,2.65
2017-07-25T07:14:33.738Z,2.60
2017-07-25T07:17:01.604Z,2.80
2017-07-25T07:19:29.466Z,2.65
2017-07-25T07:21:57.331Z,2.03
2017-07-25T07:24:25.193Z,2.35
2017-07-25T07:26:53.070Z,2.50
2017-07-25T07:29:21.639Z,1.90
2017-07-25T07:31:49.404Z,1.62
2017-07-25T07:34:17.267Z,2.33
2017-07-25T07:36:45.127Z,2.97
2017-07-25T07:39:12.876Z,2.17
2017-07-25T07:41:40.758Z,2.37
2017-07-25T07:44:08.617Z,2.10
2017-07-25T07:46:36.487Z,2.37
2017-07-25T07:49:04.319Z,1.90
2017-07-25T07:51:32.207Z,3.80
2017-07-25T07:54:00.026Z,2.25
2017-07-25T07:56:27.835Z,2.65
2017-07-25T07:58:55.659Z,2.12
2017-07-25T08:01:23.458Z,2.65
2017-07-25T08:03:51.323Z,1.80
2017-07-25T08:06:19.191Z,1.87
2017-07-25T08:08:46.943Z,1.60
2017-07-25T08:11:14.814Z,3.00
2017-07-25T08:13:42.570Z,2.28
2017-07-25T08:16:10.435Z,1.67
2017-07-25T08:18:38.218Z,1.27
2017-07-25T08:21:06.063Z,1.20
2017-07-25T08:23:33.926Z,1.67
2017-07-25T08:26:01.789Z,1.30
2017-07-25T08:28:29.652Z,1.70
2017-07-25T08:30:57.437Z,1.67
2017-07-25T08:33:26.099Z,1.35
2017-07-25T08:35:53.960Z,1.27
2017-07-25T08:38:21.714Z,1.75
2017-07-25T08:40:49.478Z,1.50
2017-07-25T08:43:17.267Z,1.70
2017-07-25T08:45:45.928Z,1.80
2017-07-25T08:48:13.738Z,1.40
2017-07-25T08:50:41.494Z,1.30
2017-07-25T08:53:09.316Z,1.55
2017-07-25T08:55:37.110Z,2.15
2017-07-25T08:58:04.941Z,2.05
2017-07-25T09:00:32.750Z,1.75
2017-07-25T09:03:00.502Z,1.85
2017-07-25T09:05:28.256Z,1.87
2017-07-25T09:07:56.039Z,2.37
2017-07-25T09:10:23.790Z,2.30
2017-07-25T09:12:51.614Z,3.10
2017-07-25T09:15:19.370Z,2.92
2017-07-25T09:17:47.128Z,2.47
2017-07-25T09:20:14.951Z,3.15
2017-07-25T09:22:42.703Z,3.83
2017-07-25T09:25:10.464Z,3.10
2017-07-25T09:27:38.281Z,4.05
2017-07-25T09:30:06.082Z,3.35
2017-07-25T09:32:33.834Z,5.12
2017-07-25T09:35:02.439Z,3.67
2017-07-25T09:37:30.196Z,4.20
2017-07-25T09:39:57.955Z,4.00
2017-07-25T09:42:25.745Z,3.97
2017-07-25T09:44:53.503Z,3.90
2017-07-25T09:47:21.252Z,4.03
2017-07-25T09:49:49.038Z,4.03
2017-07-25T09:52:16.789Z,4.37
2017-07-25T09:54:44.541Z,4.40
2017-07-25T09:57:12.321Z,4.53
2017-07-25T09:59:40.078Z,4.32
2017-07-25T10:02:07.833Z,4.05
2017-07-25T10:04:35.626Z,4.72
2017-07-25T10:07:03.380Z,3.53
2017-07-25T10:09:31.133Z,3.50
2017-07-25T10:11:58.924Z,4.22
2017-07-25T10:14:27.446Z,3.05
2017-07-25T10:16:55.198Z,3.87
2017-07-25T10:19:22.993Z,3.05
2017-07-25T10:21:50.749Z,3.78
2017-07-25T10:24:18.496Z,3.78
2017-07-25T10:26:46.279Z,3.65
2017-07-25T10:29:14.056Z,3.20
2017-07-25T10:31:41.817Z,3.20
2017-07-25T10:34:09.602Z,4.60
2017-07-25T10:36:38.125Z,2.30
2017-07-25T10:39:05.877Z,3.28
2017-07-25T10:41:33.657Z,2.83
2017-07-25T10:44:01.417Z,3.33
2017-07-25T10:46:29.207Z,2.72
2017-07-25T10:48:56.997Z,2.40
2017-07-25T10:51:25.509Z,2.55
2017-07-25T10:53:53.295Z,2.60
2017-07-25T10:56:21.043Z,1.60
2017-07-25T10:58:48.813Z,2.60
2017-07-25T11:01:16.599Z,1.85
2017-07-25T11:03:44.350Z,1.55
2017-07-25T11:06:12.154Z,1.30
2017-07-25T11:08:39.941Z,1.15
2017-07-25T11:11:07.706Z,1.00
2017-07-25T11:13:35.476Z,1.33
2017-07-25T11:16:03.301Z,0.75
2017-07-25T11:18:31.053Z,1.00
2017-07-25T11:20:59.581Z,1.00
2017-07-25T11:23:27.399Z,0.80
2017-07-25T11:25:55.159Z,0.85
2017-07-25T11:28:23.681Z,0.82
2017-07-25T11:30:51.495Z,1.70
2017-07-25T11:33:20.019Z,0.90
2017-07-25T11:35:47.774Z,1.55
2017-07-25T11:38:15.609Z,1.20
2017-07-25T11:40:43.369Z,1.15
2017-07-25T11:43:11.150Z,0.95
2017-07-25T11:45:38.970Z,0.95
2017-07-25T11:48:06.731Z,0.90
2017-07-25T11:50:34.498Z,0.80
2017-07-25T11:53:03.079Z,1.35
2017-07-25T11:55:31.619Z,1.17
2017-07-25T11:57:59.383Z,1.10
2017-07-25T12:00:27.215Z,1.35
2017-07-25T12:02:54.976Z,1.40
2017-07-25T12:05:22.735Z,1.80
2017-07-25T12:07:50.569Z,1.58
2017-07-25T12:10:19.100Z,2.00
2017-07-25T12:12:46.863Z,1.80
2017-07-25T12:15:14.650Z,2.00
2017-07-25T12:17:42.405Z,1.95
2017-07-25T12:20:10.229Z,1.85
2017-07-25T12:22:37.994Z,2.42
2017-07-25T12:25:05.754Z,2.00
2017-07-25T12:27:33.571Z,2.15
2017-07-25T12:30:01.326Z,2.10
2017-07-25T12:32:29.081Z,2.40
2017-07-25T12:34:56.890Z,1.92
2017-07-25T12:37:24.659Z,2.60
2017-07-25T12:39:52.417Z,1.60
2017-07-25T12:42:20.226Z,2.17
2017-07-25T12:44:47.974Z,2.50
2017-07-25T12:47:15.731Z,2.12
2017-07-25T12:49:43.518Z,1.85
2017-07-25T12:52:11.269Z,2.42
2017-07-25T12:54:39.059Z,2.50
2017-07-25T12:57:07.625Z,3.60
2017-07-25T12:59:35.385Z,2.03
2017-07-25T13:02:15.110Z,2.35
2017-07-25T13:04:42.862Z,2.80
2017-07-25T13:07:10.619Z,2.72
2017-07-25T13:09:38.407Z,2.53
2017-07-25T13:12:06.170Z,3.03
2017-07-25T13:14:33.927Z,2.15
2017-07-25T13:17:01.723Z,2.58
2017-07-25T13:19:30.258Z,2.95
2017-07-25T13:21:58.009Z,2.40
2017-07-25T13:24:25.794Z,2.67
2017-07-25T13:26:53.544Z,2.10
2017-07-25T13:29:21.306Z,2.60
2017-07-25T13:31:49.104Z,1.40
2017-07-25T13:34:17.626Z,2.75
2017-07-25T13:36:45.386Z,2.58
2017-07-25T13:39:13.175Z,2.70
2017-07-25T13:41:40.930Z,3.55
2017-07-25T13:44:08.681Z,2.40
2017-07-25T13:46:36.470Z,2.87
2017-07-25T13:49:04.254Z,3.20
2017-07-25T13:51:32.772Z,2.20
2017-07-25T13:54:00.570Z,2.17
2017-07-25T13:56:28.328Z,2.28
2017-07-25T13:58:56.079Z,1.90
2017-07-25T14:01:23.866Z,1.83
2017-07-25T14:03:51.631Z,2.83
2017-07-25T14:06:19.405Z,2.15
2017-07-25T14:08:47.960Z,2.80
2017-07-25T14:11:15.719Z,2.58
2017-07-25T14:13:43.547Z,1.77
2017-07-25T14:16:11.300Z,2.05
2017-07-25T14:18:39.062Z,2.40
2017-07-25T14:21:06.860Z,1.95
2017-07-25T14:23:34.615Z,2.47
2017-07-25T14:26:02.426Z,2.35
2017-07-25T14:28:30.942Z,2.40
2017-07-25T14:30:58.693Z,2.05
2017-07-25T14:33:26.482Z,2.33
2017-07-25T14:35:54.238Z,3.47
2017-07-25T14:38:22.053Z,2.50
2017-07-25T14:40:50.582Z,2.95
2017-07-25T14:43:18.344Z,1.80
2017-07-25T14:45:46.139Z,3.08
2017-07-25T14:48:14.660Z,2.60
2017-07-25T14:50:42.472Z,2.37
2017-07-25T14:53:10.227Z,3.22
2017-07-25T14:55:37.978Z,2.30
2017-07-25T14:58:05.772Z,2.58
2017-07-25T15:00:34.298Z,2.58
2017-07-25T15:03:02.115Z,3.10
2017-07-25T15:05:30.638Z,3.58
2017-07-25T15:07:58.393Z,2.20
2017-07-25T15:10:26.179Z,1.67
2017-07-25T15:12:53.939Z,2.55
2017-07-25T15:15:21.754Z,2.37
2017-07-25T15:17:49.509Z,3.97
2017-07-25T15:20:18.024Z,2.80
2017-07-25T15:22:45.814Z,2.33
2017-07-25T15:25:13.564Z,2.70
2017-07-25T15:27:41.386Z,2.53
2017-07-25T15:30:09.287Z,2.12
2017-07-25T15:32:37.046Z,2.90
2017-07-25T15:35:04.825Z,3.08
2017-07-25T15:37:32.582Z,2.90
2017-07-25T15:40:00.399Z,3.70
2017-07-25T15:42:28.158Z,2.80
2017-07-25T15:44:55.910Z,2.65
2017-07-25T15:47:24.470Z,2.30
2017-07-25T15:49:52.225Z,2.75
2017-07-25T15:52:20.038Z,3.03
2017-07-25T15:54:47.794Z,3.10
2017-07-25T15:57:15.559Z,3.55
2017-07-25T15:59:43.344Z,3.58
2017-07-25T16:02:11.103Z,3.15
2017-07-25T16:04:38.917Z,2.40
2017-07-25T16:07:07.437Z,2.80
2017-07-25T16:09:35.181Z,2.97
2017-07-25T16:12:02.976Z,3.42
2017-07-25T16:14:30.728Z,3.42
2017-07-25T16:16:58.541Z,3.50
2017-07-25T16:19:27.062Z,3.00
2017-07-25T16:21:54.815Z,3.33
2017-07-25T16:24:22.605Z,4.90
2017-07-25T16:26:50.363Z,6.65
2017-07-25T16:29:18.367Z,5.70
2017-07-25T16:31:46.893Z,5.93
2017-07-25T16:34:14.656Z,11.07
2017-07-25T16:36:42.448Z,3.33
2017-07-25T16:39:10.213Z,3.60
2017-07-25T16:41:38.035Z,3.70
2017-07-25T16:44:05.794Z,2.20
2017-07-25T16:46:33.555Z,1.92
2017-07-25T16:49:01.338Z,1.58
2017-07-25T16:51:29.090Z,1.80
2017-07-25T16:53:56.903Z,1.65
2017-07-25T16:56:25.418Z,2.53
2017-07-25T16:58:53.170Z,2.20
2017-07-25T17:01:20.953Z,2.25
2017-07-25T17:03:48.712Z,2.40
2017-07-25T17:06:16.523Z,2.40
2017-07-25T17:08:44.280Z,2.70
2017-07-25T17:11:12.035Z,3.05
2017-07-25T17:13:39.827Z,3.10
2017-07-25T17:16:08.342Z,2.80
2017-07-25T17:18:36.205Z,2.70
2017-07-25T17:21:03.967Z,2.72
2017-07-25T17:23:31.722Z,2.83
2017-07-25T17:25:59.507Z,2.60
2017-07-25T17:28:27.258Z,2.87
2017-07-25T17:30:56.080Z,3.17
2017-07-25T17:33:23.826Z,2.70
2017-07-25T17:35:51.596Z,3.05
2017-07-25T17:38:19.382Z,3.10
2017-07-25T17:40:47.902Z,2.83
2017-07-25T17:43:15.718Z,2.70
2017-07-25T17:45:44.235Z,3.10
2017-07-25T17:48:11.986Z,2.10
2017-07-25T17:50:39.773Z,2.45
2017-07-25T17:53:07.526Z,2.10
2017-07-25T17:55:35.348Z,2.80
2017-07-25T17:58:03.115Z,2.90
2017-07-25T18:00:31.635Z,3.45
2017-07-25T18:02:59.476Z,2.53
2017-07-25T18:05:27.231Z,2.85
2017-07-25T18:07:55.047Z,2.92
2017-07-25T18:10:22.812Z,2.15
2017-07-25T18:12:50.575Z,3.33
2017-07-25T18:15:18.362Z,2.20
2017-07-25T18:17:46.882Z,2.87
2017-07-25T18:20:14.695Z,2.80
2017-07-25T18:22:43.214Z,2.35
2017-07-25T18:25:10.971Z,2.58
2017-07-25T18:27:38.771Z,2.92
2017-07-25T18:30:06.525Z,2.92
2017-07-25T18:32:34.334Z,3.28
2017-07-25T18:35:02.858Z,2.35
2017-07-25T18:37:30.615Z,2.40
2017-07-25T18:39:58.405Z,2.53
2017-07-25T18:42:26.153Z,2.25
2017-07-25T18:44:53.962Z,3.17
2017-07-25T18:47:22.487Z,3.97
2017-07-25T18:49:50.242Z,4.30
2017-07-25T18:52:18.032Z,4.70
2017-07-25T18:54:45.796Z,5.75
2017-07-25T18:57:13.609Z,4.62
2017-07-25T18:59:41.362Z,4.55
2017-07-25T19:02:09.119Z,4.00
2017-07-25T19:04:36.905Z,4.32
2017-07-25T19:07:04.658Z,4.70
2017-07-25T19:09:32.474Z,4.90
2017-07-25T19:12:00.225Z,4.37
2017-07-25T19:14:27.978Z,5.22
2017-07-25T19:16:55.770Z,5.70
2017-07-25T19:19:24.291Z,4.60
2017-07-25T19:21:52.108Z,4.70
2017-07-25T19:24:20.622Z,4.68
2017-07-25T19:26:48.374Z,4.60
2017-07-25T19:29:16.158Z,5.10
2017-07-25T19:31:43.910Z,4.45
2017-07-25T19:34:11.715Z,4.10
2017-07-25T19:36:39.469Z,4.15
2017-07-25T19:39:07.229Z,4.90
2017-07-25T19:41:35.017Z,3.72
2017-07-25T19:44:02.767Z,6.57
2017-07-25T19:46:30.574Z,3.87
2017-07-25T19:48:58.323Z,3.28
2017-07-25T19:51:26.088Z,3.80
2017-07-25T19:53:53.873Z,4.15
2017-07-25T19:56:21.630Z,4.03
2017-07-25T19:58:49.541Z,4.35
2017-07-25T20:01:17.408Z,4.53
2017-07-25T20:03:45.160Z,4.20
2017-07-25T20:06:12.998Z,4.75
2017-07-25T20:08:40.755Z,4.07
2017-07-25T20:11:08.562Z,4.80
2017-07-25T20:13:36.321Z,4.70
2017-07-25T20:16:04.082Z,4.85
2017-07-25T20:18:31.874Z,5.10
2017-07-25T20:20:59.637Z,4.60
2017-07-25T20:23:27.447Z,5.10
2017-07-25T20:25:55.198Z,5.57
2017-07-25T20:28:22.955Z,5.15
2017-07-25T20:30:50.746Z,6.22
2017-07-25T20:33:18.494Z,6.75
2017-07-25T20:35:46.310Z,5.30
2017-07-25T20:38:14.082Z,5.65
2017-07-25T20:40:41.834Z,5.53
2017-07-25T20:43:09.627Z,4.10
2017-07-25T20:45:37.379Z,5.70
2017-07-25T20:48:05.190Z,4.25
2017-07-25T20:50:33.710Z,5.32
2017-07-25T20:53:01.470Z,3.25
2017-07-25T20:55:29.259Z,3.90
2017-07-25T20:57:57.015Z,3.72
2017-07-25T21:00:24.834Z,4.50
2017-07-25T21:02:53.347Z,3.90
2017-07-25T21:05:21.100Z,3.67
2017-07-25T21:07:48.881Z,3.60
2017-07-25T21:10:16.631Z,4.25
2017-07-25T21:12:44.475Z,4.20
2017-07-25T21:15:12.230Z,4.40
2017-07-25T21:17:39.978Z,3.83
2017-07-25T21:20:08.527Z,4.10
2017-07-25T21:22:36.296Z,4.43
2017-07-25T21:25:04.116Z,4.70
2017-07-25T21:27:31.872Z,4.40
2017-07-25T21:29:59.625Z,4.45
2017-07-25T21:32:27.416Z,5.55
2017-07-25T21:34:55.166Z,4.75
2017-07-25T21:37:22.978Z,5.50
2017-07-25T21:39:50.731Z,4.82
2017-07-25T21:42:18.486Z,5.20
2017-07-25T21:44:46.278Z,4.70
2017-07-25T21:47:14.805Z,4.53
2017-07-25T21:49:42.795Z,4.22
2017-07-25T21:52:10.546Z,4.45
2017-07-25T21:54:38.307Z,4.07
2017-07-25T21:57:06.111Z,4.07
2017-07-25T21:59:34.634Z,4.60
2017-07-25T22:02:14.263Z,4.90
2017-07-25T22:04:53.787Z,4.12
2017-07-25T22:07:21.574Z,4.43
2017-07-25T22:09:49.338Z,4.80
2017-07-25T22:12:17.150Z,4.87
2017-07-25T22:14:45.666Z,4.07
2017-07-25T22:17:13.429Z,4.20
2017-07-25T22:19:41.331Z,4.22
2017-07-25T22:22:09.086Z,3.37
2017-07-25T22:24:36.895Z,3.50
2017-07-25T22:27:04.647Z,4.00
2017-07-25T22:29:32.403Z,3.62
2017-07-25T22:32:00.962Z,4.93
2017-07-25T22:34:28.730Z,3.33
2017-07-25T22:36:57.311Z,4.32
2017-07-25T22:39:25.838Z,3.92
2017-07-25T22:41:53.602Z,3.90
2017-07-25T22:44:21.392Z,3.83
2017-07-25T22:46:49.138Z,4.22
2017-07-25T22:49:16.951Z,4.30
2017-07-25T22:51:45.467Z,4.00
2017-07-25T22:54:13.221Z,3.67
2017-07-25T22:56:41.001Z,3.78
2017-07-25T22:59:08.746Z,3.75
2017-07-25T23:01:36.563Z,3.37
2017-07-25T23:04:04.322Z,4.07
2017-07-25T23:06:32.121Z,3.60
2017-07-25T23:08:59.918Z,4.15
2017-07-25T23:11:27.679Z,3.53
2017-07-25T23:13:55.527Z,3.35
2017-07-25T23:16:23.283Z,3.55
2017-07-25T23:18:51.039Z,3.30
2017-07-25T23:21:18.819Z,3.15
2017-07-25T23:23:46.573Z,2.92
2017-07-25T23:26:14.389Z,3.30
2017-07-25T23:28:42.908Z,2.70
2017-07-25T23:31:10.661Z,3.30
2017-07-25T23:33:38.447Z,3.30
2017-07-25T23:36:06.197Z,3.30
2017-07-25T23:38:34.012Z,3.12
2017-07-25T23:41:02.531Z,3.55
2017-07-25T23:43:30.296Z,3.10
2017-07-25T23:45:58.082Z,3.70
2017-07-25T23:48:25.840Z,3.75
2017-07-25T23:50:53.662Z,3.97
2017-07-25T23:53:21.413Z,2.05
2017-07-25T23:55:49.165Z,3.03
2017-07-25T23:58:17.724Z,2.75
